Latest Weather Observations for Katanning RS

IDW60801

Issued at 3:33 pm WST Monday 25 July 2016 (issued every 30 minutes, with the page automatically refreshed every 10 minutes)

About weather observations | Map of weather stations | Latest weather observations for WA | Other Formats
Station Details ID: 010916 Name: KATANNING Lat: -33.69 Lon: 117.61 Height: 320.0 m
Data from the previous 72 hours. | See also: Recent months at Katanning RS
Date/Time
WST
Temp
°C
App
Temp
°C
Dew
Point
°C
Rel
Hum
%
Delta-T
°C
Wind Press
QNH
hPa
Press
MSL
hPa
Rain since
9am
mm
Dir  Spd
km/h
Gust
km/h
Spd
kts
Gust
kts
25/03:30pm 14.1 9.9 5.7 57 4.0 W 17 22 9 12 1025.4 1025.7 0.0
25/03:00pm 13.3 10.8 6.4 63 3.3 SW 9 13 5 7 1025.4 1025.7 0.0
25/02:30pm 13.9 11.5 7.2 64 3.3 SW 9 19 5 10 1025.3 1025.6 0.0
25/02:00pm 13.0 10.6 7.0 67 2.9 SW 9 13 5 7 1025.3 1025.6 0.0
25/01:30pm 13.1 10.1 6.2 63 3.3 WSW 11 20 6 11 1025.7 1025.9 0.0
25/01:00pm 12.9 9.7 6.7 66 3.0 WSW 13 20 7 11 1026.1 1026.3 0.0
25/12:30pm 12.2 9.1 7.1 71 2.5 WSW 13 20 7 11 1026.6 1026.8 0.0
25/12:00pm 12.5 9.6 6.5 67 2.9 WSW 11 19 6 10 1026.9 1027.1 0.0
25/11:30am 12.5 9.4 7.4 71 2.5 SW 13 19 7 10 1027.3 1027.6 0.0
25/11:00am 11.9 9.2 7.4 74 2.2 W 11 17 6 9 1027.6 1027.9 0.0
25/10:30am 11.1 8.7 7.2 77 1.9 W 9 15 5 8 1027.7 1028.0 0.0
25/10:00am 9.9 7.3 7.7 86 1.1 W 11 13 6 7 1027.7 1028.0 0.0
25/09:30am 8.7 6.0 7.2 90 0.7 WSW 11 15 6 8 1027.7 1028.0 0.0
25/09:00am 8.3 5.5 6.8 90 0.7 W 11 15 6 8 1027.7 1028.0 0.0
25/08:30am 7.8 5.2 6.3 90 0.7 WSW 9 13 5 7 1027.6 1027.9 0.0
25/08:00am 7.3 4.6 5.8 90 0.7 SW 9 13 5 7 1027.5 1027.8 0.0
25/07:30am 7.3 5.2 5.8 90 0.7 WSW 6 7 3 4 1027.3 1027.6 0.0
25/07:00am 6.8 4.4 5.1 89 0.8 W 7 9 4 5 1026.9 1027.1 0.0
25/06:30am 7.3 4.6 5.6 89 0.8 W 9 13 5 7 1026.6 1026.8 0.0
25/06:00am 7.4 4.3 5.7 89 0.8 W 11 15 6 8 1026.3 1026.5 0.0
25/05:30am 7.3 4.6 5.6 89 0.8 W 9 11 5 6 1026.1 1026.3 0.0
25/05:00am 7.4 4.7 5.7 89 0.8 W 9 13 5 7 1025.9 1026.1 0.0
25/04:30am 7.0 4.8 5.3 89 0.8 NW 6 9 3 5 1025.7 1025.9 0.0
25/04:00am 6.8 4.4 5.1 89 0.8 WNW 7 9 4 5 1025.8 1026.0 0.0
25/03:30am 7.2 4.5 5.5 89 0.8 WNW 9 11 5 6 1026.1 1026.3 0.0
25/03:00am 7.6 5.0 5.9 89 0.8 WNW 9 15 5 8 1026.1 1026.3 0.0
25/02:30am 7.7 5.1 6.2 90 0.7 WNW 9 13 5 7 1026.1 1026.3 0.0
25/02:00am 7.7 5.1 6.2 90 0.7 W 9 13 5 7 1026.2 1026.4 0.0
25/01:30am 7.6 4.6 6.1 90 0.7 W 11 15 6 8 1026.1 1026.3 0.0
25/01:00am 7.6 4.6 5.9 89 0.8 W 11 15 6 8 1026.1 1026.3 0.0
25/12:30am 7.1 4.3 5.3 88 0.8 W 9 11 5 6 1026.1 1026.3 0.0
25/12:00am 7.5 4.8 5.6 88 0.9 WNW 9 13 5 7 1026.2 1026.4 0.0
 
Date/Time
WST
Temp
°C
App
Temp
°C
Dew
Point
°C
Rel
Hum
%
Delta-T
°C
Wind Press
QNH
hPa
Press
MSL
hPa
Rain since
9am
mm
Dir  Spd
km/h
Gust
km/h
Spd
kts
Gust
kts
24/11:30pm 7.9 4.9 6.0 88 0.9 W 11 17 6 9 1026.4 1026.6 0.0
24/11:00pm 7.7 4.7 6.0 89 0.8 W 11 13 6 7 1026.6 1026.8 0.0
24/10:30pm 7.2 4.1 5.5 89 0.8 W 11 15 6 8 1026.7 1026.9 0.0
24/10:00pm 6.4 3.5 4.6 88 0.8 WNW 9 13 5 7 1026.6 1026.8 0.0
24/09:30pm 7.0 4.2 5.2 88 0.8 WNW 9 13 5 7 1026.5 1026.7 0.0
24/09:00pm 6.9 4.4 4.7 86 1.0 WNW 7 9 4 5 1026.4 1026.6 0.0
24/08:30pm 7.9 5.6 5.7 86 1.0 W 7 9 4 5 1026.3 1026.5 0.0
24/08:00pm 8.5 5.9 6.0 84 1.2 W 9 11 5 6 1026.3 1026.5 0.0
24/07:30pm 8.5 5.8 5.6 82 1.3 W 9 13 5 7 1026.3 1026.5 0.0
24/07:00pm 8.9 6.7 6.0 82 1.3 WNW 7 11 4 6 1026.2 1026.4 0.0
24/06:30pm 8.9 6.8 5.8 81 1.4 WNW 6 7 3 4 1026.0 1026.2 0.0
24/06:00pm 9.1 6.8 5.7 79 1.6 WNW 7 11 4 6 1025.7 1025.9 0.0
24/05:30pm 9.3 7.0 5.5 77 1.8 W 7 11 4 6 1025.7 1025.9 0.0
24/05:00pm 9.6 6.4 5.0 73 2.1 W 11 15 6 8 1025.4 1025.7 0.0
24/04:30pm 9.9 7.0 4.9 71 2.3 WSW 9 15 5 8 1025.3 1025.6 0.0
24/04:00pm 9.8 6.9 4.8 71 2.3 W 9 13 5 7 1025.6 1025.8 0.0
24/03:30pm 9.6 5.9 4.6 71 2.3 W 13 19 7 10 1025.6 1025.8 0.0
24/03:00pm 9.6 6.2 4.2 69 2.4 W 11 17 6 9 1025.6 1025.8 0.0
24/02:30pm 9.6 5.9 4.2 69 2.4 W 13 20 7 11 1025.3 1025.6 0.0
24/02:00pm 9.7 5.7 4.7 71 2.3 WSW 15 22 8 12 1025.4 1025.7 0.0
24/01:30pm 9.6 5.1 4.4 70 2.3 W 17 20 9 11 1025.7 1025.9 0.0
24/01:00pm 9.9 6.6 4.5 69 2.4 WSW 11 19 6 10 1026.0 1026.2 0.0
24/12:30pm 9.4 5.6 4.0 69 2.4 WSW 13 17 7 9 1026.5 1026.7 0.0
24/12:00pm 9.3 5.8 3.7 68 2.5 W 11 19 6 10 1026.8 1027.0 0.0
24/11:30am 9.8 6.0 4.0 67 2.6 W 13 19 7 10 1027.1 1027.4 0.0
24/11:00am 9.4 5.5 3.6 67 2.6 SW 13 19 7 10 1027.3 1027.6 0.0
24/10:30am 8.9 5.9 3.9 71 2.2 WSW 9 17 5 9 1027.5 1027.8 0.0
24/10:00am 8.0 4.3 4.2 77 1.7 WSW 13 17 7 9 1027.6 1027.9 0.0
24/09:30am 6.8 3.3 3.6 80 1.4 WSW 11 15 6 8 1027.4 1027.7 0.0
24/09:00am 6.7 3.3 4.2 84 1.1 W 11 17 6 9 1027.5 1027.8 1.0
24/08:30am 4.6 0.6 2.8 88 0.7 W 13 17 7 9 1027.2 1027.5 1.0
24/08:00am 3.0 -0.9 1.4 89 0.6 WSW 11 13 6 7 1026.9 1027.1 1.0
24/07:30am 3.1 -1.1 1.5 89 0.6 W 13 15 7 8 1026.5 1026.7 1.0
24/07:00am 3.0 -1.2 1.4 89 0.6 W 13 17 7 9 1026.3 1026.5 1.0
24/06:30am 3.0 -1.3 1.2 88 0.7 W 13 13 7 7 1025.9 1026.1 1.0
24/06:00am 3.2 -1.0 1.4 88 0.7 W 13 15 7 8 1025.6 1025.8 0.8
24/05:30am 3.5 -0.7 1.7 88 0.7 W 13 19 7 10 1025.3 1025.6 0.8
24/05:00am 3.7 -0.1 1.9 88 0.7 W 11 17 6 9 1025.4 1025.7 0.8
24/04:30am 3.1 -0.8 1.3 88 0.7 W 11 13 6 7 1025.3 1025.6 0.8
24/04:00am 2.5 -1.9 0.6 87 0.7 W 13 15 7 8 1025.4 1025.7 0.8
24/03:30am 2.4 -1.6 0.3 86 0.8 W 11 13 6 7 1025.4 1025.7 0.8
24/03:00am 2.6 -1.8 0.5 86 0.8 W 13 15 7 8 1025.3 1025.6 0.8
24/02:30am 2.6 -1.8 0.3 85 0.9 W 13 15 7 8 1025.3 1025.6 0.8
24/02:00am 2.5 -1.5 0.2 85 0.9 W 11 15 6 8 1025.4 1025.7 0.8
24/01:30am 2.8 -1.6 0.4 84 0.9 W 13 17 7 9 1025.3 1025.6 0.8
24/01:00am 3.1 -1.3 0.5 83 1.0 W 13 15 7 8 1025.3 1025.6 0.8
24/12:30am 3.1 -1.3 0.2 81 1.1 W 13 15 7 8 1025.3 1025.6 0.8
24/12:00am 3.5 -0.9 0.4 80 1.2 W 13 15 7 8 1025.4 1025.7 0.8
 
Date/Time
WST
Temp
°C
App
Temp
°C
Dew
Point
°C
Rel
Hum
%
Delta-T
°C
Wind Press
QNH
hPa
Press
MSL
hPa
Rain since
9am
mm
Dir  Spd
km/h
Gust
km/h
Spd
kts
Gust
kts
23/11:30pm 3.4 -1.0 0.6 82 1.1 W 13 17 7 9 1025.4 1025.7 0.8
23/11:00pm 2.8 -1.3 0.0 82 1.1 WSW 11 13 6 7 1025.6 1025.8 0.8
23/10:30pm 3.1 -0.6 0.0 80 1.2 W 9 11 5 6 1025.4 1025.7 0.8
23/10:00pm 3.9 -0.1 0.8 80 1.2 W 11 13 6 7 1025.3 1025.6 0.8
23/09:30pm 3.2 -0.5 0.1 80 1.2 W 9 13 5 7 1025.1 1025.4 0.8
23/09:00pm 3.0 -0.7 -0.1 80 1.2 W 9 11 5 6 1024.9 1025.2 0.8
23/08:30pm 3.4 -0.2 0.5 81 1.1 WSW 9 9 5 5 1024.8 1025.1 0.8
23/08:00pm 3.8 0.6 1.0 82 1.1 WSW 7 9 4 5 1024.6 1024.9 0.8
23/07:30pm 4.1 0.9 1.0 80 1.2 WSW 7 9 4 5 1024.3 1024.5 0.8
23/07:00pm 5.3 2.5 2.0 79 1.3 SW 6 7 3 4 1024.1 1024.3 0.8
23/06:30pm 5.8 2.8 2.1 77 1.5 SSW 7 9 4 5 1023.7 1023.9 0.8
23/06:00pm 6.1 2.7 2.0 75 1.7 SSW 9 11 5 6 1023.4 1023.6 0.8
23/05:30pm 7.3 4.0 2.6 72 2.0 SW 9 15 5 8 1022.8 1023.0 0.8
23/05:00pm 8.3 3.6 3.0 69 2.3 SSW 17 32 9 17 1022.4 1022.6 0.8
23/04:30pm 8.8 4.5 3.0 67 2.5 SW 15 24 8 13 1022.0 1022.3 0.8
23/04:00pm 8.7 3.5 3.5 70 2.3 SSW 20 39 11 21 1021.8 1022.1 0.8
23/03:30pm 9.9 4.3 3.6 65 2.8 SSW 22 41 12 22 1021.4 1021.6 0.8
23/03:00pm 10.6 5.1 4.1 64 2.9 SSW 22 35 12 19 1021.2 1021.4 0.8
23/02:30pm 10.2 3.6 2.3 58 3.4 SW 26 35 14 19 1020.9 1021.1 0.8
23/02:00pm 9.7 3.5 4.1 68 2.5 SW 26 43 14 23 1020.8 1021.0 0.8
23/01:30pm 9.7 4.0 5.1 73 2.1 SW 24 32 13 17 1020.6 1020.8 0.8
23/01:00pm 10.2 4.6 5.4 72 2.2 SW 24 39 13 21 1020.6 1020.8 0.8
23/12:30pm 9.4 4.4 6.5 82 1.4 SW 22 32 12 17 1020.9 1021.1 0.8
23/12:00pm 9.4 5.2 7.3 87 1.0 WSW 19 35 10 19 1020.7 1020.9 0.8
23/11:30am 9.6 4.7 6.9 83 1.3 W 22 32 12 17 1020.8 1021.0 0.0
23/11:00am 9.7 5.3 6.6 81 1.5 W 19 30 10 16 1020.8 1021.0 0.0
23/10:30am 9.7 3.8 5.9 77 1.8 WNW 26 39 14 21 1020.8 1021.0 0.0
23/10:00am 9.0 3.4 5.6 79 1.6 WNW 24 35 13 19 1020.9 1021.1 0.0
23/09:30am 8.8 3.7 5.9 82 1.3 WNW 22 33 12 18 1020.6 1020.8 0.0
23/09:00am 8.0 3.2 5.5 84 1.1 WNW 20 32 11 17 1020.6 1020.8 0.0
23/08:30am 7.4 2.8 5.4 87 0.9 WNW 19 26 10 14 1020.8 1021.0 0.0
23/08:00am 6.5 1.4 4.3 86 1.0 NW 20 30 11 16 1020.7 1020.9 0.0
23/07:30am 5.9 1.7 3.6 85 1.0 NW 15 22 8 12 1020.6 1020.8 0.0
23/07:00am 6.3 2.1 3.6 83 1.2 NW 15 20 8 11 1020.6 1020.8 0.0
23/06:30am 6.4 2.2 3.6 82 1.2 NW 15 24 8 13 1020.6 1020.8 0.0
23/06:00am 6.4 2.6 3.7 83 1.2 WNW 13 20 7 11 1020.8 1021.0 0.0
23/05:30am 6.4 2.1 3.2 80 1.4 WNW 15 20 8 11 1020.8 1021.0 0.0
23/05:00am 6.3 3.1 3.1 80 1.4 WNW 9 15 5 8 1021.1 1021.3 0.0
23/04:30am 6.2 2.8 4.0 86 1.0 NW 11 17 6 9 1021.0 1021.2 0.0
23/04:00am 5.8 2.4 4.1 89 0.7 NW 11 17 6 9 1021.2 1021.4 0.0
23/03:30am 5.6 2.2 3.9 89 0.7 NW 11 17 6 9 1021.4 1021.6 0.0
23/03:00am 5.2 2.0 3.2 87 0.8 NW 9 13 5 7 1021.9 1022.2 0.0
23/02:30am 5.8 2.7 3.5 85 1.0 NW 9 15 5 8 1021.9 1022.2 0.0
23/02:00am 6.6 2.8 4.1 84 1.1 WNW 13 19 7 10 1022.0 1022.3 0.0
23/01:30am 6.6 4.0 4.3 85 1.0 NW 7 13 4 7 1021.9 1022.2 0.0
23/01:00am 6.7 4.3 4.4 85 1.0 NNW 6 7 3 4 1021.9 1022.2 0.0
23/12:30am 6.5 4.5 4.3 86 1.0 WNW 4 7 2 4 1022.1 1022.4 0.0
23/12:00am 6.5 4.1 4.3 86 1.0 WNW 6 7 3 4 1022.4 1022.6 0.0
 
Date/Time
WST
Temp
°C
App
Temp
°C
Dew
Point
°C
Rel
Hum
%
Delta-T
°C
Wind Press
QNH
hPa
Press
MSL
hPa
Rain since
9am
mm
Dir  Spd
km/h
Gust
km/h
Spd
kts
Gust
kts
22/11:30pm 6.5 3.6 4.5 87 0.9 W 9 11 5 6 1022.7 1022.9 0.0
22/11:00pm 6.2 3.6 4.2 87 0.9 W 7 9 4 5 1022.7 1022.9 0.0
22/10:30pm 6.2 3.6 4.0 86 1.0 WNW 7 9 4 5 1022.9 1023.1 0.0
22/10:00pm 6.3 3.8 3.8 84 1.1 W 6 7 3 4 1023.2 1023.4 0.0
22/09:30pm 6.7 4.1 4.0 83 1.2 WSW 7 9 4 5 1023.2 1023.4 0.0
22/09:00pm 6.8 4.2 4.1 83 1.2 W 7 9 4 5 1023.3 1023.5 0.0
22/08:30pm 6.7 4.6 4.0 83 1.2 WSW 4 6 2 3 1023.5 1023.7 0.0
22/08:00pm 6.6 4.5 3.8 82 1.2 WSW 4 6 2 3 1023.5 1023.7 0.0
22/07:30pm 6.8 4.7 3.9 82 1.3 SSW 4 6 2 3 1023.3 1023.5 0.0
22/07:00pm 6.7 4.2 3.5 80 1.4 SSW 6 6 3 3 1023.0 1023.2 0.0
22/06:30pm 7.0 4.4 3.3 77 1.6 SW 6 9 3 5 1023.0 1023.2 0.0
22/06:00pm 7.5 4.9 3.2 74 1.8 SW 6 7 3 4 1022.9 1023.1 0.0
22/05:30pm 8.3 5.8 3.9 74 1.9 WSW 6 7 3 4 1022.8 1023.0 0.0
22/05:00pm 8.7 6.0 3.7 71 2.2 SW 7 9 4 5 1022.6 1022.8 0.0
22/04:30pm 9.3 6.2 3.5 67 2.6 SSW 9 15 5 8 1022.6 1022.8 0.0
22/04:00pm 9.6 5.9 2.5 61 3.1 SW 11 17 6 9 1022.5 1022.7 0.0

Other Formats:

Comma delimited format used in spreadsheet applications
http://www.bom.gov.au/fwo/IDW60801/IDW60801.94641.axf

JavaScript Object Notation format (JSON) in row-major order
http://www.bom.gov.au/fwo/IDW60801/IDW60801.94641.json